sensor_id;sensor_type;location;lat;lon;timestamp;pressure;altitude;pressure_sealevel;temperature;humidity
43312;BME280;30041;48.300;16.352;2023-01-30T00:00:49;100276.75;;;20.99;41.51
43312;BME280;30041;48.300;16.352;2023-01-30T00:03:15;100272.16;;;21.00;41.57
43312;BME280;30041;48.300;16.352;2023-01-30T00:05:40;100276.34;;;20.96;41.64
43312;BME280;30041;48.300;16.352;2023-01-30T00:08:06;100275.97;;;20.92;41.66
43312;BME280;30041;48.300;16.352;2023-01-30T00:10:32;100262.88;;;20.96;41.39
43312;BME280;30041;48.300;16.352;2023-01-30T00:12:57;100261.22;;;20.94;41.42
43312;BME280;30041;48.300;16.352;2023-01-30T00:15:23;100262.25;;;20.93;41.32
43312;BME280;30041;48.300;16.352;2023-01-30T00:17:49;100260.84;;;20.91;41.39
43312;BME280;30041;48.300;16.352;2023-01-30T00:20:14;100261.44;;;20.93;41.51
43312;BME280;30041;48.300;16.352;2023-01-30T00:22:40;100247.75;;;20.94;41.54
43312;BME280;30041;48.300;16.352;2023-01-30T00:25:06;100242.59;;;20.93;41.45
43312;BME280;30041;48.300;16.352;2023-01-30T00:27:31;100240.69;;;20.93;41.46
43312;BME280;30041;48.300;16.352;2023-01-30T00:29:57;100234.34;;;20.88;41.44
43312;BME280;30041;48.300;16.352;2023-01-30T00:32:22;100229.31;;;20.91;41.54
43312;BME280;30041;48.300;16.352;2023-01-30T00:34:48;100219.00;;;20.88;41.58
43312;BME280;30041;48.300;16.352;2023-01-30T00:37:13;100217.13;;;20.89;41.47
43312;BME280;30041;48.300;16.352;2023-01-30T00:39:39;100209.84;;;20.89;41.46
43312;BME280;30041;48.300;16.352;2023-01-30T00:42:04;100209.03;;;20.89;41.47
43312;BME280;30041;48.300;16.352;2023-01-30T00:44:30;100217.13;;;20.89;41.39
43312;BME280;30041;48.300;16.352;2023-01-30T00:46:55;100204.69;;;20.88;41.50
43312;BME280;30041;48.300;16.352;2023-01-30T00:49:21;100198.47;;;20.87;41.25
43312;BME280;30041;48.300;16.352;2023-01-30T00:51:46;100187.47;;;20.89;41.18
43312;BME280;30041;48.300;16.352;2023-01-30T00:54:12;100198.47;;;20.87;41.37
43312;BME280;30041;48.300;16.352;2023-01-30T00:56:37;100191.66;;;20.85;41.41
43312;BME280;30041;48.300;16.352;2023-01-30T00:59:03;100194.13;;;20.86;41.35
43312;BME280;30041;48.300;16.352;2023-01-30T01:01:28;100198.09;;;20.84;41.38
43312;BME280;30041;48.300;16.352;2023-01-30T01:03:54;100194.78;;;20.82;41.43
43312;BME280;30041;48.300;16.352;2023-01-30T01:06:19;100184.41;;;20.85;41.42
43312;BME280;30041;48.300;16.352;2023-01-30T01:08:45;100180.88;;;20.85;41.44
43312;BME280;30041;48.300;16.352;2023-01-30T01:11:10;100179.44;;;20.82;41.31
43312;BME280;30041;48.300;16.352;2023-01-30T01:13:36;100169.50;;;20.83;41.46
43312;BME280;30041;48.300;16.352;2023-01-30T01:16:01;100168.06;;;20.80;41.38
43312;BME280;30041;48.300;16.352;2023-01-30T01:18:27;100168.31;;;20.79;41.39
43312;BME280;30041;48.300;16.352;2023-01-30T01:20:52;100163.28;;;20.82;41.18
43312;BME280;30041;48.300;16.352;2023-01-30T01:23:17;100151.75;;;20.75;41.39
43312;BME280;30041;48.300;16.352;2023-01-30T01:25:44;100159.38;;;20.78;41.26
43312;BME280;30041;48.300;16.352;2023-01-30T01:28:09;100148.84;;;20.77;41.39
43312;BME280;30041;48.300;16.352;2023-01-30T01:30:36;100151.47;;;20.83;41.16
43312;BME280;30041;48.300;16.352;2023-01-30T01:33:02;100146.97;;;20.77;41.07
43312;BME280;30041;48.300;16.352;2023-01-30T01:35:27;100152.34;;;20.77;41.35
43312;BME280;30041;48.300;16.352;2023-01-30T01:37:57;100145.31;;;20.76;41.17
43312;BME280;30041;48.300;16.352;2023-01-30T01:40:22;100141.38;;;20.79;41.28
43312;BME280;30041;48.300;16.352;2023-01-30T01:42:48;100133.28;;;20.79;41.21
43312;BME280;30041;48.300;16.352;2023-01-30T01:45:18;100128.94;;;20.78;41.15
43312;BME280;30041;48.300;16.352;2023-01-30T01:47:57;100138.28;;;20.75;41.27
43312;BME280;30041;48.300;16.352;2023-01-30T01:50:52;100129.38;;;20.75;41.22
43312;BME280;30041;48.300;16.352;2023-01-30T01:53:24;100119.03;;;20.71;41.35
43312;BME280;30041;48.300;16.352;2023-01-30T01:55:53;100112.97;;;20.76;41.24
43312;BME280;30041;48.300;16.352;2023-01-30T01:58:41;100107.00;;;20.74;41.22
43312;BME280;30041;48.300;16.352;2023-01-30T02:01:10;100102.44;;;20.75;41.14
43312;BME280;30041;48.300;16.352;2023-01-30T02:03:40;100097.88;;;20.75;41.28
43312;BME280;30041;48.300;16.352;2023-01-30T02:06:08;100085.88;;;20.71;41.10
43312;BME280;30041;48.300;16.352;2023-01-30T02:08:38;100087.56;;;20.72;41.16
43312;BME280;30041;48.300;16.352;2023-01-30T02:11:08;100090.25;;;20.72;41.37
43312;BME280;30041;48.300;16.352;2023-01-30T02:13:37;100078.63;;;20.71;41.20
43312;BME280;30041;48.300;16.352;2023-01-30T02:16:04;100082.00;;;20.67;41.19
43312;BME280;30041;48.300;16.352;2023-01-30T02:18:32;100086.72;;;20.71;41.41
43312;BME280;30041;48.300;16.352;2023-01-30T02:24:08;100067.72;;;20.66;41.18
43312;BME280;30041;48.300;16.352;2023-01-30T02:29:38;100063.13;;;20.67;41.10
43312;BME280;30041;48.300;16.352;2023-01-30T02:38:10;100046.97;;;20.67;41.04
43312;BME280;30041;48.300;16.352;2023-01-30T02:40:48;100028.59;;;20.64;40.99
43312;BME280;30041;48.300;16.352;2023-01-30T02:46:11;100018.63;;;20.64;41.10
43312;BME280;30041;48.300;16.352;2023-01-30T02:51:20;100021.78;;;20.61;41.14
43312;BME280;30041;48.300;16.352;2023-01-30T02:53:48;100014.91;;;20.65;41.01
43312;BME280;30041;48.300;16.352;2023-01-30T02:56:15;100020.03;;;20.67;40.93
43312;BME280;30041;48.300;16.352;2023-01-30T02:58:44;100018.41;;;20.66;41.21
43312;BME280;30041;48.300;16.352;2023-01-30T03:01:33;100008.91;;;20.63;41.13
43312;BME280;30041;48.300;16.352;2023-01-30T03:15:01;99994.84;;;20.61;40.89
43312;BME280;30041;48.300;16.352;2023-01-30T03:17:30;100000.00;;;20.63;40.99
43312;BME280;30041;48.300;16.352;2023-01-30T03:19:59;99998.13;;;20.63;40.92
43312;BME280;30041;48.300;16.352;2023-01-30T03:22:25;100003.28;;;20.65;41.10
43312;BME280;30041;48.300;16.352;2023-01-30T03:24:52;99983.63;;;20.64;40.85
43312;BME280;30041;48.300;16.352;2023-01-30T03:27:19;99989.22;;;20.63;40.77
43312;BME280;30041;48.300;16.352;2023-01-30T03:29:45;99985.09;;;20.60;41.10
43312;BME280;30041;48.300;16.352;2023-01-30T03:32:11;99981.59;;;20.60;41.10
43312;BME280;30041;48.300;16.352;2023-01-30T03:34:37;99968.72;;;20.62;40.68
43312;BME280;30041;48.300;16.352;2023-01-30T03:37:03;99953.84;;;20.59;40.78
43312;BME280;30041;48.300;16.352;2023-01-30T03:39:29;99953.03;;;20.59;40.97
43312;BME280;30041;48.300;16.352;2023-01-30T03:41:55;99964.41;;;20.61;40.87
43312;BME280;30041;48.300;16.352;2023-01-30T03:44:20;99957.81;;;20.57;41.03
43312;BME280;30041;48.300;16.352;2023-01-30T03:46:46;99962.75;;;20.60;41.11
43312;BME280;30041;48.300;16.352;2023-01-30T03:49:12;99948.00;;;20.62;41.01
43312;BME280;30041;48.300;16.352;2023-01-30T03:51:37;99946.16;;;20.56;40.91
43312;BME280;30041;48.300;16.352;2023-01-30T03:54:03;99946.59;;;20.60;40.83
43312;BME280;30041;48.300;16.352;2023-01-30T03:56:29;99937.09;;;20.57;40.98
43312;BME280;30041;48.300;16.352;2023-01-30T03:58:55;99944.75;;;20.53;40.75
43312;BME280;30041;48.300;16.352;2023-01-30T04:01:21;99935.84;;;20.53;40.99
43312;BME280;30041;48.300;16.352;2023-01-30T04:03:46;99929.19;;;20.56;41.06
43312;BME280;30041;48.300;16.352;2023-01-30T04:06:12;99929.84;;;20.58;40.77
43312;BME280;30041;48.300;16.352;2023-01-30T04:08:37;99929.84;;;20.58;40.52
43312;BME280;30041;48.300;16.352;2023-01-30T04:11:03;99927.78;;;20.53;40.85
43312;BME280;30041;48.300;16.352;2023-01-30T04:13:28;99925.50;;;20.57;40.67
43312;BME280;30041;48.300;16.352;2023-01-30T04:16:19;99921.56;;;20.52;40.86
43312;BME280;30041;48.300;16.352;2023-01-30T04:18:45;99926.50;;;20.56;40.81
43312;BME280;30041;48.300;16.352;2023-01-30T04:21:11;99923.66;;;20.50;40.75
43312;BME280;30041;48.300;16.352;2023-01-30T04:23:37;99923.00;;;20.55;40.87
43312;BME280;30041;48.300;16.352;2023-01-30T04:26:04;99910.81;;;20.52;40.90
43312;BME280;30041;48.300;16.352;2023-01-30T04:28:29;99910.41;;;20.49;40.77
43312;BME280;30041;48.300;16.352;2023-01-30T04:30:55;99908.53;;;20.49;40.84
43312;BME280;30041;48.300;16.352;2023-01-30T04:33:21;99910.41;;;20.49;40.79
43312;BME280;30041;48.300;16.352;2023-01-30T04:35:53;99909.81;;;20.47;40.83
43312;BME280;30041;48.300;16.352;2023-01-30T04:38:20;99908.19;;;20.46;40.71
43312;BME280;30041;48.300;16.352;2023-01-30T04:40:49;99905.50;;;20.46;40.80
43312;BME280;30041;48.300;16.352;2023-01-30T04:43:15;99905.94;;;20.43;40.78
43312;BME280;30041;48.300;16.352;2023-01-30T04:45:45;99909.22;;;20.45;41.01
43312;BME280;30041;48.300;16.352;2023-01-30T04:48:11;99895.75;;;20.45;40.86
43312;BME280;30041;48.300;16.352;2023-01-30T04:50:38;99901.38;;;20.43;40.88
43312;BME280;30041;48.300;16.352;2023-01-30T04:53:04;99905.56;;;20.39;40.96
43312;BME280;30041;48.300;16.352;2023-01-30T04:55:29;99902.41;;;20.42;40.94
43312;BME280;30041;48.300;16.352;2023-01-30T04:57:55;99909.47;;;20.43;40.89
43312;BME280;30041;48.300;16.352;2023-01-30T05:00:20;99898.09;;;20.41;40.75
43312;BME280;30041;48.300;16.352;2023-01-30T05:02:46;99892.31;;;20.38;41.05
43312;BME280;30041;48.300;16.352;2023-01-30T05:05:11;99896.69;;;20.39;41.04
43312;BME280;30041;48.300;16.352;2023-01-30T05:07:37;99896.88;;;20.37;40.87
43312;BME280;30041;48.300;16.352;2023-01-30T05:10:03;99902.28;;;20.37;40.93
43312;BME280;30041;48.300;16.352;2023-01-30T05:12:29;99885.53;;;20.35;41.03
43312;BME280;30041;48.300;16.352;2023-01-30T05:14:54;99902.50;;;20.36;41.00
43312;BME280;30041;48.300;16.352;2023-01-30T05:17:19;99900.66;;;20.36;41.00
43312;BME280;30041;48.300;16.352;2023-01-30T05:19:45;99902.72;;;20.34;41.16
43312;BME280;30041;48.300;16.352;2023-01-30T05:22:11;99902.72;;;20.34;40.91
43312;BME280;30041;48.300;16.352;2023-01-30T05:24:36;99908.13;;;20.34;41.13
43312;BME280;30041;48.300;16.352;2023-01-30T05:27:02;99888.06;;;20.30;41.06
43312;BME280;30041;48.300;16.352;2023-01-30T05:29:28;99887.41;;;20.35;40.85
43312;BME280;30041;48.300;16.352;2023-01-30T05:31:54;99887.81;;;20.31;41.14
43312;BME280;30041;48.300;16.352;2023-01-30T05:34:20;99885.75;;;20.33;41.02
43312;BME280;30041;48.300;16.352;2023-01-30T05:36:45;99880.13;;;20.35;40.91
43312;BME280;30041;48.300;16.352;2023-01-30T05:39:11;99883.44;;;20.37;41.23
43312;BME280;30041;48.300;16.352;2023-01-30T05:41:37;99890.53;;;20.31;41.12
43312;BME280;30041;48.300;16.352;2023-01-30T05:44:02;99887.19;;;20.36;41.05
43312;BME280;30041;48.300;16.352;2023-01-30T05:46:28;99879.19;;;20.29;41.00
43312;BME280;30041;48.300;16.352;2023-01-30T05:48:53;99895.09;;;20.31;41.02
43312;BME280;30041;48.300;16.352;2023-01-30T05:51:24;99890.59;;;20.25;41.36
43312;BME280;30041;48.300;16.352;2023-01-30T05:53:50;99882.50;;;20.25;41.54
43312;BME280;30041;48.300;16.352;2023-01-30T05:56:16;99880.66;;;20.25;41.43
43312;BME280;30041;48.300;16.352;2023-01-30T05:58:42;99879.19;;;20.29;41.29
43312;BME280;30041;48.300;16.352;2023-01-30T06:01:11;99891.19;;;20.27;41.33
43312;BME280;30041;48.300;16.352;2023-01-30T06:03:37;99863.47;;;20.26;41.13
43312;BME280;30041;48.300;16.352;2023-01-30T06:06:05;99866.28;;;20.31;41.25
43312;BME280;30041;48.300;16.352;2023-01-30T06:08:31;99877.13;;;20.25;41.16
43312;BME280;30041;48.300;16.352;2023-01-30T06:11:05;99886.78;;;20.32;41.26
43312;BME280;30041;48.300;16.352;2023-01-30T06:13:31;99885.38;;;20.30;41.05
43312;BME280;30041;48.300;16.352;2023-01-30T06:15:56;99882.09;;;20.28;41.24
43312;BME280;30041;48.300;16.352;2023-01-30T06:18:22;99876.91;;;20.26;41.32
43312;BME280;30041;48.300;16.352;2023-01-30T06:20:49;99881.88;;;20.29;41.27
43312;BME280;30041;48.300;16.352;2023-01-30T06:23:17;99850.81;;;20.27;41.05
43312;BME280;30041;48.300;16.352;2023-01-30T06:25:47;99845.59;;;20.32;41.29
43312;BME280;30041;48.300;16.352;2023-01-30T06:28:14;99849.94;;;20.33;41.28
43312;BME280;30041;48.300;16.352;2023-01-30T06:30:40;99859.50;;;20.29;41.19
43312;BME280;30041;48.300;16.352;2023-01-30T06:33:06;99859.28;;;20.30;41.13
43312;BME280;30041;48.300;16.352;2023-01-30T06:35:32;99836.53;;;20.26;41.20
43312;BME280;30041;48.300;16.352;2023-01-30T06:37:58;99819.59;;;20.26;41.28
43312;BME280;30041;48.300;16.352;2023-01-30T06:40:23;99829.06;;;20.28;41.10
43312;BME280;30041;48.300;16.352;2023-01-30T06:42:49;99840.31;;;20.25;41.20
43312;BME280;30041;48.300;16.352;2023-01-30T06:45:17;99836.34;;;20.28;41.16
43312;BME280;30041;48.300;16.352;2023-01-30T06:47:45;99825.56;;;20.28;41.10
43312;BME280;30041;48.300;16.352;2023-01-30T06:50:10;99826.16;;;20.30;41.04
43312;BME280;30041;48.300;16.352;2023-01-30T06:52:40;99822.28;;;20.26;41.09
43312;BME280;30041;48.300;16.352;2023-01-30T06:55:06;99813.38;;;20.25;41.48
43312;BME280;30041;48.300;16.352;2023-01-30T06:57:32;99810.03;;;20.30;42.05
43312;BME280;30041;48.300;16.352;2023-01-30T06:59:57;99791.00;;;20.25;42.46
43312;BME280;30041;48.300;16.352;2023-01-30T07:02:23;99791.69;;;20.20;42.48
43312;BME280;30041;48.300;16.352;2023-01-30T07:04:48;99782.00;;;20.19;42.24
43312;BME280;30041;48.300;16.352;2023-01-30T07:07:14;99792.97;;;20.18;41.92
43312;BME280;30041;48.300;16.352;2023-01-30T07:09:39;99791.69;;;20.20;41.71
43312;BME280;30041;48.300;16.352;2023-01-30T07:12:05;99797.06;;;20.20;41.72
43312;BME280;30041;48.300;16.352;2023-01-30T07:14:31;99797.91;;;20.21;41.55
43312;BME280;30041;48.300;16.352;2023-01-30T07:16:56;99798.53;;;20.23;41.52
43312;BME280;30041;48.300;16.352;2023-01-30T07:19:22;99792.28;;;20.22;41.49
43312;BME280;30041;48.300;16.352;2023-01-30T07:21:47;99809.50;;;20.21;41.56
43312;BME280;30041;48.300;16.352;2023-01-30T07:24:13;99818.59;;;20.20;41.52
43312;BME280;30041;48.300;16.352;2023-01-30T07:26:38;99820.03;;;20.23;41.50
43312;BME280;30041;48.300;16.352;2023-01-30T07:29:04;99833.72;;;20.21;41.53
43312;BME280;30041;48.300;16.352;2023-01-30T07:31:29;99829.38;;;20.20;41.49
43312;BME280;30041;48.300;16.352;2023-01-30T07:33:55;99840.72;;;20.22;41.49
43312;BME280;30041;48.300;16.352;2023-01-30T07:36:20;99828.56;;;20.20;41.58
43312;BME280;30041;48.300;16.352;2023-01-30T07:38:47;99821.75;;;20.17;41.37
43312;BME280;30041;48.300;16.352;2023-01-30T07:41:13;99815.69;;;20.22;41.34
43312;BME280;30041;48.300;16.352;2023-01-30T07:43:38;99815.31;;;20.18;41.62
43312;BME280;30041;48.300;16.352;2023-01-30T07:46:04;99811.00;;;20.17;41.51
43312;BME280;30041;48.300;16.352;2023-01-30T07:48:29;99813.47;;;20.19;41.53
43312;BME280;30041;48.300;16.352;2023-01-30T07:50:55;99779.50;;;20.18;41.37
43312;BME280;30041;48.300;16.352;2023-01-30T07:53:20;99781.38;;;20.17;41.75
43312;BME280;30041;48.300;16.352;2023-01-30T07:55:46;99770.63;;;20.17;41.61
43312;BME280;30041;48.300;16.352;2023-01-30T07:58:13;99798.00;;;20.14;41.87
43312;BME280;30041;48.300;16.352;2023-01-30T08:00:39;99776.22;;;20.16;41.53
43312;BME280;30041;48.300;16.352;2023-01-30T08:03:05;99765.09;;;20.12;41.65
43312;BME280;30041;48.300;16.352;2023-01-30T08:05:31;99761.13;;;20.15;41.47
43312;BME280;30041;48.300;16.352;2023-01-30T08:07:56;99767.56;;;20.14;41.42
43312;BME280;30041;48.300;16.352;2023-01-30T08:10:22;99769.22;;;20.15;41.69
43312;BME280;30041;48.300;16.352;2023-01-30T08:12:50;99770.25;;;20.14;41.57
43312;BME280;30041;48.300;16.352;2023-01-30T08:15:16;99756.78;;;20.14;41.47
43312;BME280;30041;48.300;16.352;2023-01-30T08:17:42;99757.63;;;20.14;41.52
43312;BME280;30041;48.300;16.352;2023-01-30T08:20:08;99739.81;;;20.13;41.47
43312;BME280;30041;48.300;16.352;2023-01-30T08:22:34;99734.44;;;20.13;41.71
43312;BME280;30041;48.300;16.352;2023-01-30T08:24:59;99735.50;;;20.12;41.63
43312;BME280;30041;48.300;16.352;2023-01-30T08:27:25;99741.91;;;20.11;41.37
43312;BME280;30041;48.300;16.352;2023-01-30T08:29:50;99725.34;;;20.14;41.48
43312;BME280;30041;48.300;16.352;2023-01-30T08:32:16;99721.81;;;20.14;41.47
43312;BME280;30041;48.300;16.352;2023-01-30T08:34:41;99707.75;;;20.11;41.37
43312;BME280;30041;48.300;16.352;2023-01-30T08:37:07;99704.50;;;20.09;41.57
43312;BME280;30041;48.300;16.352;2023-01-30T08:39:32;99705.06;;;20.11;41.59
43312;BME280;30041;48.300;16.352;2023-01-30T08:42:29;99695.59;;;20.09;41.52
43312;BME280;30041;48.300;16.352;2023-01-30T08:44:54;99708.81;;;20.10;41.55
43312;BME280;30041;48.300;16.352;2023-01-30T08:47:20;99688.09;;;20.11;41.48
43312;BME280;30041;48.300;16.352;2023-01-30T08:49:45;99691.84;;;20.10;41.62
43312;BME280;30041;48.300;16.352;2023-01-30T08:52:11;99680.72;;;20.06;41.58
43312;BME280;30041;48.300;16.352;2023-01-30T08:54:36;99675.13;;;20.08;41.65
43312;BME280;30041;48.300;16.352;2023-01-30T08:57:02;99667.25;;;20.06;41.71
43312;BME280;30041;48.300;16.352;2023-01-30T08:59:27;99664.56;;;20.06;41.57
43312;BME280;30041;48.300;16.352;2023-01-30T09:01:53;99673.13;;;20.03;41.68
43312;BME280;30041;48.300;16.352;2023-01-30T09:04:19;99663.75;;;20.06;41.89
43312;BME280;30041;48.300;16.352;2023-01-30T09:06:44;99664.34;;;20.08;41.86
43312;BME280;30041;48.300;16.352;2023-01-30T09:09:10;99659.19;;;20.06;41.85
43312;BME280;30041;48.300;16.352;2023-01-30T09:11:35;99655.69;;;20.06;41.66
43312;BME280;30041;48.300;16.352;2023-01-30T09:14:01;99644.13;;;20.05;41.78
43312;BME280;30041;48.300;16.352;2023-01-30T09:16:26;99643.88;;;20.07;41.71
43312;BME280;30041;48.300;16.352;2023-01-30T09:18:52;99628.56;;;20.07;41.50
43312;BME280;30041;48.300;16.352;2023-01-30T09:21:17;99619.91;;;20.05;41.78
43312;BME280;30041;48.300;16.352;2023-01-30T09:23:43;99630.66;;;20.05;41.52
43312;BME280;30041;48.300;16.352;2023-01-30T09:26:08;99621.19;;;20.03;41.71
43312;BME280;30041;48.300;16.352;2023-01-30T09:28:34;99616.84;;;20.02;41.78
43312;BME280;30041;48.300;16.352;2023-01-30T09:31:00;99606.44;;;20.05;41.75
43312;BME280;30041;48.300;16.352;2023-01-30T09:33:27;99612.44;;;20.07;41.51
43312;BME280;30041;48.300;16.352;2023-01-30T09:35:53;99601.88;;;20.06;41.72
43312;BME280;30041;48.300;16.352;2023-01-30T09:38:19;99593.81;;;20.06;41.52
43312;BME280;30041;48.300;16.352;2023-01-30T09:40:55;99594.28;;;20.03;41.41
43312;BME280;30041;48.300;16.352;2023-01-30T09:51:48;99568.41;;;20.02;41.64
43312;BME280;30041;48.300;16.352;2023-01-30T09:54:22;99568.19;;;20.03;41.74
43312;BME280;30041;48.300;16.352;2023-01-30T09:56:55;99584.94;;;20.05;41.51
43312;BME280;30041;48.300;16.352;2023-01-30T09:59:27;99581.06;;;20.01;41.63
43312;BME280;30041;48.300;16.352;2023-01-30T10:04:36;99570.66;;;20.05;41.50
43312;BME280;30041;48.300;16.352;2023-01-30T10:21:03;99550.41;;;20.02;41.75
43312;BME280;30041;48.300;16.352;2023-01-30T10:26:27;99539.63;;;20.02;41.67
43312;BME280;30041;48.300;16.352;2023-01-30T10:29:04;99533.09;;;19.98;41.54
43312;BME280;30041;48.300;16.352;2023-01-30T10:31:39;99520.22;;;20.00;41.61
43312;BME280;30041;48.300;16.352;2023-01-30T10:34:11;99534.94;;;19.98;41.67
43312;BME280;30041;48.300;16.352;2023-01-30T10:36:48;99517.19;;;19.97;41.72
43312;BME280;30041;48.300;16.352;2023-01-30T10:39:25;99517.78;;;19.99;41.52
43312;BME280;30041;48.300;16.352;2023-01-30T10:42:20;99520.56;;;19.92;41.58
43312;BME280;30041;48.300;16.352;2023-01-30T10:45:00;99526.53;;;19.94;41.65
43312;BME280;30041;48.300;16.352;2023-01-30T10:47:40;99526.06;;;19.97;41.57
43312;BME280;30041;48.300;16.352;2023-01-30T10:50:28;99510.16;;;19.96;41.77
43312;BME280;30041;48.300;16.352;2023-01-30T10:55:41;99528.53;;;19.99;41.62
43312;BME280;30041;48.300;16.352;2023-01-30T11:00:57;99519.06;;;19.96;41.69
43312;BME280;30041;48.300;16.352;2023-01-30T11:03:41;99496.69;;;19.96;41.73
43312;BME280;30041;48.300;16.352;2023-01-30T11:06:16;99509.94;;;19.97;41.74
43312;BME280;30041;48.300;16.352;2023-01-30T11:08:43;99478.72;;;19.96;41.67
43312;BME280;30041;48.300;16.352;2023-01-30T11:11:27;99483.94;;;19.91;41.85
43312;BME280;30041;48.300;16.352;2023-01-30T11:14:07;99467.59;;;19.93;41.74
43312;BME280;30041;48.300;16.352;2023-01-30T11:16:42;99454.84;;;20.00;41.62
43312;BME280;30041;48.300;16.352;2023-01-30T11:19:08;99421.75;;;19.99;41.75
43312;BME280;30041;48.300;16.352;2023-01-30T11:21:34;99428.75;;;20.00;41.79
43312;BME280;30041;48.300;16.352;2023-01-30T11:24:14;99426.75;;;19.96;41.51
43312;BME280;30041;48.300;16.352;2023-01-30T11:26:40;99428.41;;;19.97;41.52
43312;BME280;30041;48.300;16.352;2023-01-30T11:29:29;99407.59;;;19.92;41.69
43312;BME280;30041;48.300;16.352;2023-01-30T11:32:01;99413.31;;;19.96;41.38
43312;BME280;30041;48.300;16.352;2023-01-30T11:34:28;99412.50;;;19.95;41.58
43312;BME280;30041;48.300;16.352;2023-01-30T11:37:11;99396.72;;;19.99;41.57
43312;BME280;30041;48.300;16.352;2023-01-30T11:39:47;99387.00;;;19.98;41.61
43312;BME280;30041;48.300;16.352;2023-01-30T11:42:18;99355.78;;;19.97;41.96
43312;BME280;30041;48.300;16.352;2023-01-30T11:44:44;99372.75;;;19.97;41.69
43312;BME280;30041;48.300;16.352;2023-01-30T11:47:23;99366.19;;;19.93;41.66
43312;BME280;30041;48.300;16.352;2023-01-30T11:49:52;99355.78;;;19.97;41.69
43312;BME280;30041;48.300;16.352;2023-01-30T11:52:19;99333.22;;;19.98;41.72
43312;BME280;30041;48.300;16.352;2023-01-30T11:54:49;99335.91;;;19.98;41.66
43312;BME280;30041;48.300;16.352;2023-01-30T11:57:17;99346.66;;;19.98;41.72
43312;BME280;30041;48.300;16.352;2023-01-30T11:59:48;99351.22;;;19.97;41.62
43312;BME280;30041;48.300;16.352;2023-01-30T12:05:00;99336.75;;;19.98;41.85
43312;BME280;30041;48.300;16.352;2023-01-30T12:07:28;99327.81;;;19.98;41.64
43312;BME280;30041;48.300;16.352;2023-01-30T12:09:55;99310.06;;;19.97;41.62
43312;BME280;30041;48.300;16.352;2023-01-30T12:12:39;99323.28;;;19.98;41.80
43312;BME280;30041;48.300;16.352;2023-01-30T12:15:27;99329.72;;;19.97;41.50
43312;BME280;30041;48.300;16.352;2023-01-30T12:18:13;99332.88;;;19.94;41.63
43312;BME280;30041;48.300;16.352;2023-01-30T12:20:55;99326.91;;;19.92;41.54
43312;BME280;30041;48.300;16.352;2023-01-30T12:31:23;99329.13;;;19.95;41.85
43312;BME280;30041;48.300;16.352;2023-01-30T12:33:50;99319.66;;;19.93;41.65
43312;BME280;30041;48.300;16.352;2023-01-30T12:42:27;99324.22;;;19.92;41.62
43312;BME280;30041;48.300;16.352;2023-01-30T12:55:39;99330.91;;;19.89;41.76
43312;BME280;30041;48.300;16.352;2023-01-30T13:03:40;99341.28;;;19.98;41.84
43312;BME280;30041;48.300;16.352;2023-01-30T13:06:40;99324.22;;;19.92;41.54
43312;BME280;30041;48.300;16.352;2023-01-30T13:11:53;99331.81;;;19.95;41.65
43312;BME280;30041;48.300;16.352;2023-01-30T13:20:26;99317.56;;;19.95;41.57
43312;BME280;30041;48.300;16.352;2023-01-30T13:23:03;99329.13;;;19.95;41.80
43312;BME280;30041;48.300;16.352;2023-01-30T13:28:13;99326.91;;;19.92;41.80
43312;BME280;30041;48.300;16.352;2023-01-30T13:30:40;99317.19;;;19.91;41.67
43312;BME280;30041;48.300;16.352;2023-01-30T13:33:17;99314.28;;;19.93;41.69
43312;BME280;30041;48.300;16.352;2023-01-30T13:35:54;99299.75;;;19.94;41.69
43312;BME280;30041;48.300;16.352;2023-01-30T13:38:26;99303.50;;;19.93;41.84
43312;BME280;30041;48.300;16.352;2023-01-30T13:40:56;99296.50;;;19.92;41.83
43312;BME280;30041;48.300;16.352;2023-01-30T13:43:32;99302.69;;;19.92;41.54
43312;BME280;30041;48.300;16.352;2023-01-30T13:46:02;99310.06;;;19.97;41.56
43312;BME280;30041;48.300;16.352;2023-01-30T13:51:47;99304.31;;;19.93;41.78
43312;BME280;30041;48.300;16.352;2023-01-30T13:57:19;99282.81;;;19.93;41.66
43312;BME280;30041;48.300;16.352;2023-01-30T14:08:20;99304.91;;;19.95;41.79
43312;BME280;30041;48.300;16.352;2023-01-30T14:10:47;99307.59;;;19.95;41.60
43312;BME280;30041;48.300;16.352;2023-01-30T14:13:15;99324.31;;;19.97;41.64
43312;BME280;30041;48.300;16.352;2023-01-30T14:15:55;99325.63;;;19.95;41.64
43312;BME280;30041;48.300;16.352;2023-01-30T14:18:27;99309.25;;;19.96;41.70
43312;BME280;30041;48.300;16.352;2023-01-30T14:21:12;99305.97;;;19.94;41.72
43312;BME280;30041;48.300;16.352;2023-01-30T14:23:39;99299.19;;;19.92;41.74
43312;BME280;30041;48.300;16.352;2023-01-30T14:26:06;99311.34;;;19.94;41.59
43312;BME280;30041;48.300;16.352;2023-01-30T14:31:01;99317.31;;;19.96;41.81
43312;BME280;30041;48.300;16.352;2023-01-30T14:38:35;99335.56;;;19.94;41.80
43312;BME280;30041;48.300;16.352;2023-01-30T15:02:05;99374.50;;;19.92;41.76
43312;BME280;30041;48.300;16.352;2023-01-30T15:04:36;99374.84;;;19.95;41.87
43312;BME280;30041;48.300;16.352;2023-01-30T15:07:08;99383.97;;;19.94;41.68
43312;BME280;30041;48.300;16.352;2023-01-30T15:09:36;99379.41;;;19.95;41.82
43312;BME280;30041;48.300;16.352;2023-01-30T15:12:09;99371.81;;;19.92;41.90
43312;BME280;30041;48.300;16.352;2023-01-30T15:15:08;99380.34;;;19.88;41.88
43312;BME280;30041;48.300;16.352;2023-01-30T15:23:01;99376.94;;;19.93;41.97
43312;BME280;30041;48.300;16.352;2023-01-30T15:31:00;99387.38;;;19.89;41.80
43312;BME280;30041;48.300;16.352;2023-01-30T15:33:29;99384.19;;;19.93;42.01
43312;BME280;30041;48.300;16.352;2023-01-30T15:35:54;99395.78;;;19.93;41.96